Terminal Aerodrome Forecast
Issued by NWS Twin Cities, MN

Home | Current Version | Previous Version | Graphics & Text | Print | Product List | Glossary On
Versions: 1 2 3 4 5 6 7 8 9 10 11 12 13 14 15 16 17 18 19 20 21 22 23 24 25 26 27 28 29 30 31 32 33 34
000
FTUS43 KMPX 132057 AAA
TAFMSP
TAF AMD
KMSP 132057Z 1321/1424 33014G22KT P6SM OVC025
     FM140200 32008KT P6SM OVC025
     FM140600 32004KT P6SM BKN025
     FM141100 29004KT P6SM BKN015
     FM142100 29005KT P6SM BKN035=

USA.gov is the U.S. government's official web portal to all federal, state and local government web resources and services.